createdAt,value
2022-08-25T00:00:26.686Z,53.80
2022-08-25T00:03:35.883Z,53.90
2022-08-25T00:06:43.123Z,53.90
2022-08-25T00:09:48.449Z,53.90
2022-08-25T00:12:53.461Z,54.00
2022-08-25T00:15:59.851Z,53.90
2022-08-25T00:19:11.719Z,53.90
2022-08-25T00:22:16.703Z,53.90
2022-08-25T00:25:21.906Z,54.00
2022-08-25T00:28:27.145Z,54.00
2022-08-25T00:31:38.836Z,54.00
2022-08-25T00:34:46.989Z,54.00
2022-08-25T00:37:52.306Z,54.10
2022-08-25T00:41:08.623Z,54.10
2022-08-25T00:44:18.941Z,54.10
2022-08-25T00:47:24.086Z,54.10
2022-08-25T00:50:34.825Z,54.20
2022-08-25T00:53:41.474Z,54.10
2022-08-25T00:56:47.723Z,54.20
2022-08-25T00:59:52.926Z,54.20
2022-08-25T01:02:58.709Z,54.10
2022-08-25T01:06:07.957Z,54.20
2022-08-25T01:09:13.851Z,54.20
2022-08-25T01:12:19.084Z,54.20
2022-08-25T01:15:24.358Z,54.20
2022-08-25T01:18:30.023Z,54.20
2022-08-25T01:21:42.517Z,54.30
2022-08-25T01:24:54.637Z,54.30
2022-08-25T01:27:59.803Z,54.20
2022-08-25T01:31:05.142Z,54.30
2022-08-25T01:34:29.713Z,54.30
2022-08-25T01:37:38.298Z,54.30
2022-08-25T01:40:45.157Z,54.30
2022-08-25T01:43:50.390Z,54.30
2022-08-25T01:46:56.217Z,54.30
2022-08-25T01:50:01.226Z,54.40
2022-08-25T01:53:15.466Z,54.40
2022-08-25T01:56:20.932Z,54.40
2022-08-25T01:59:26.444Z,54.40
2022-08-25T02:02:31.750Z,55.00
2022-08-25T02:05:37.955Z,54.40
2022-08-25T02:08:46.723Z,54.40
2022-08-25T02:11:52.328Z,54.60
2022-08-25T02:14:57.283Z,54.50
2022-08-25T02:18:03.018Z,54.60
2022-08-25T02:21:08.286Z,54.60
2022-08-25T02:24:15.937Z,54.70
2022-08-25T02:27:20.905Z,54.80
2022-08-25T02:30:26.245Z,54.80
2022-08-25T02:33:31.427Z,54.80
2022-08-25T02:36:37.394Z,54.80
2022-08-25T02:39:45.025Z,54.80
2022-08-25T02:42:50.398Z,54.90
2022-08-25T02:45:56.534Z,54.90
2022-08-25T02:49:02.225Z,54.90
2022-08-25T02:52:07.198Z,54.90
2022-08-25T02:55:15.622Z,54.90
2022-08-25T02:58:20.573Z,54.90
2022-08-25T03:01:28.706Z,55.00
2022-08-25T03:04:34.234Z,55.00
2022-08-25T03:07:40.177Z,55.10
2022-08-25T03:10:47.821Z,55.00
2022-08-25T03:13:56.689Z,55.10
2022-08-25T03:17:01.674Z,55.10
2022-08-25T03:20:08.926Z,55.10
2022-08-25T03:23:14.254Z,55.20
2022-08-25T03:26:34.426Z,55.20
2022-08-25T03:29:39.438Z,55.20
2022-08-25T03:32:44.789Z,55.30
2022-08-25T03:35:49.750Z,55.30
2022-08-25T03:38:55.091Z,55.30
2022-08-25T03:42:02.611Z,55.30
2022-08-25T03:45:08.666Z,55.50
2022-08-25T03:48:14.298Z,55.40
2022-08-25T03:51:23.697Z,55.50
2022-08-25T03:54:28.926Z,55.50
2022-08-25T03:57:36.774Z,55.50
2022-08-25T04:00:42.228Z,55.60
2022-08-25T04:03:47.586Z,55.60
2022-08-25T04:06:53.023Z,55.60
2022-08-25T04:09:58.427Z,55.70
2022-08-25T04:13:06.015Z,55.80
2022-08-25T04:16:14.606Z,55.90
2022-08-25T04:19:19.549Z,55.90
2022-08-25T04:22:24.569Z,55.90
2022-08-25T04:25:29.871Z,56.00
2022-08-25T04:28:37.399Z,56.10
2022-08-25T04:31:44.412Z,56.10
2022-08-25T04:34:49.457Z,56.20
2022-08-25T04:37:54.345Z,56.20
2022-08-25T04:41:00.214Z,56.20
2022-08-25T04:44:08.114Z,56.40
2022-08-25T04:47:13.056Z,56.40
2022-08-25T04:50:18.003Z,56.50
2022-08-25T04:53:22.934Z,56.50
2022-08-25T04:56:28.298Z,56.60
2022-08-25T04:59:35.858Z,56.60
2022-08-25T05:02:40.781Z,56.70
2022-08-25T05:05:45.752Z,56.70
2022-08-25T05:08:51.473Z,56.70
2022-08-25T05:11:56.701Z,56.80
2022-08-25T05:15:24.181Z,56.80
2022-08-25T05:18:30.830Z,56.90
2022-08-25T05:21:37.221Z,57.00
2022-08-25T05:24:42.157Z,57.10
2022-08-25T05:27:47.175Z,57.00
2022-08-25T05:30:54.744Z,57.10
2022-08-25T05:34:01.019Z,57.20
2022-08-25T05:37:08.284Z,57.30
2022-08-25T05:40:17.222Z,57.40
2022-08-25T05:43:22.234Z,57.30
2022-08-25T05:46:31.962Z,57.40
2022-08-25T05:49:37.046Z,57.50
2022-08-25T05:52:42.178Z,57.50
2022-08-25T05:55:47.519Z,57.60
2022-08-25T05:58:52.934Z,57.70
2022-08-25T06:02:12.975Z,57.70
2022-08-25T06:05:20.517Z,57.80
2022-08-25T06:08:30.525Z,57.80
2022-08-25T06:11:35.534Z,57.90
2022-08-25T06:14:40.496Z,58.00
2022-08-25T06:17:48.474Z,58.00
2022-08-25T06:20:53.438Z,58.00
2022-08-25T06:23:58.374Z,58.00
2022-08-25T06:27:03.725Z,58.10
2022-08-25T06:30:11.656Z,58.10
2022-08-25T06:33:19.294Z,58.00
2022-08-25T06:36:24.464Z,58.10
2022-08-25T06:39:29.486Z,58.00
2022-08-25T06:42:34.891Z,58.00
2022-08-25T06:45:39.843Z,57.90
2022-08-25T06:48:47.639Z,57.90
2022-08-25T06:51:53.845Z,57.90
2022-08-25T06:54:58.878Z,57.80
2022-08-25T06:58:04.906Z,57.80
2022-08-25T07:01:15.906Z,57.70
2022-08-25T07:04:27.754Z,57.60
2022-08-25T07:07:44.030Z,57.60
2022-08-25T07:10:49.679Z,57.50
2022-08-25T07:13:54.681Z,57.50
2022-08-25T07:16:59.883Z,57.30
2022-08-25T07:20:08.404Z,57.20
2022-08-25T07:23:18.574Z,57.10
2022-08-25T07:26:37.232Z,57.00
2022-08-25T07:29:43.061Z,56.90
2022-08-25T07:32:48.082Z,56.80
2022-08-25T07:36:02.749Z,56.80
2022-08-25T07:39:07.853Z,56.70
2022-08-25T07:42:14.990Z,56.60
2022-08-25T07:45:25.513Z,56.50
2022-08-25T07:48:31.167Z,56.50
2022-08-25T07:51:38.721Z,56.40
2022-08-25T07:55:04.305Z,56.40
2022-08-25T07:58:10.951Z,56.30
2022-08-25T08:01:18.052Z,56.20
2022-08-25T08:04:23.537Z,56.20
2022-08-25T08:07:43.614Z,56.10
2022-08-25T08:11:04.097Z,56.00
2022-08-25T08:14:11.313Z,55.90
2022-08-25T08:17:16.400Z,55.80
2022-08-25T08:20:23.511Z,55.80
2022-08-25T08:23:31.423Z,55.70
2022-08-25T08:26:57.613Z,55.50
2022-08-25T08:30:01.435Z,55.50
2022-08-25T08:33:11.189Z,55.40
2022-08-25T08:36:16.762Z,55.20
2022-08-25T08:39:24.363Z,55.00
2022-08-25T08:42:47.369Z,54.80
2022-08-25T08:45:54.667Z,54.50
2022-08-25T08:49:04.815Z,54.40
2022-08-25T08:52:12.456Z,54.20
2022-08-25T08:55:28.013Z,54.00
2022-08-25T08:58:45.733Z,53.90
2022-08-25T09:01:59.414Z,53.60
2022-08-25T09:05:10.217Z,53.60
2022-08-25T09:08:20.416Z,54.00
2022-08-25T09:11:41.262Z,53.30
2022-08-25T09:14:57.328Z,53.00
2022-08-25T09:18:11.917Z,52.90
2022-08-25T09:21:22.649Z,52.70
2022-08-25T09:24:49.879Z,52.50
2022-08-25T09:28:09.585Z,52.20
2022-08-25T09:31:21.348Z,51.80
2022-08-25T09:34:31.128Z,51.70
2022-08-25T09:37:36.297Z,51.50
2022-08-25T09:40:44.730Z,51.30
2022-08-25T09:43:57.810Z,51.00
2022-08-25T09:47:08.096Z,50.60
2022-08-25T09:50:20.054Z,50.70
2022-08-25T09:53:25.831Z,50.20
2022-08-25T09:56:33.966Z,50.20
2022-08-25T09:59:41.645Z,49.90
2022-08-25T10:03:15.812Z,49.70
2022-08-25T10:06:20.820Z,49.40
2022-08-25T10:09:31.747Z,49.50
2022-08-25T10:12:43.203Z,49.10
2022-08-25T10:15:51.127Z,48.90
2022-08-25T10:19:10.036Z,48.70
2022-08-25T10:22:25.461Z,48.20
2022-08-25T10:25:33.850Z,48.20
2022-08-25T10:28:49.757Z,48.00
2022-08-25T10:32:00.618Z,47.70
2022-08-25T10:35:14.717Z,47.50
2022-08-25T10:38:43.166Z,47.30
2022-08-25T10:41:56.734Z,47.10
2022-08-25T10:45:32.133Z,47.00
2022-08-25T10:49:00.707Z,46.80
2022-08-25T10:52:13.863Z,46.60
2022-08-25T10:55:24.947Z,46.70
2022-08-25T10:58:59.845Z,46.50
2022-08-25T11:02:38.417Z,45.80
2022-08-25T11:05:55.224Z,45.80
2022-08-25T11:09:05.427Z,45.80
2022-08-25T11:12:16.716Z,45.60
2022-08-25T11:15:26.175Z,45.30
2022-08-25T11:18:34.018Z,45.10
2022-08-25T11:21:52.117Z,45.00
2022-08-25T11:25:05.915Z,44.60
2022-08-25T11:28:15.792Z,44.50
2022-08-25T11:31:24.036Z,44.40
2022-08-25T11:34:31.081Z,44.10
2022-08-25T11:37:45.733Z,44.00
2022-08-25T11:41:11.307Z,43.70
2022-08-25T11:44:51.834Z,43.60
2022-08-25T11:48:12.746Z,43.30
2022-08-25T11:51:36.558Z,43.20
2022-08-25T11:54:48.401Z,42.70
2022-08-25T11:57:55.989Z,42.70
2022-08-25T12:01:02.626Z,42.60
2022-08-25T12:04:16.184Z,42.40
2022-08-25T12:07:28.032Z,42.10
2022-08-25T12:10:57.062Z,42.10
2022-08-25T12:14:17.741Z,42.00
2022-08-25T12:17:26.920Z,41.80
2022-08-25T12:21:02.627Z,41.90
2022-08-25T12:24:19.497Z,41.50
2022-08-25T12:27:34.137Z,41.50
2022-08-25T12:30:50.596Z,41.30
2022-08-25T12:34:13.461Z,41.00
2022-08-25T12:37:21.132Z,40.70
2022-08-25T12:40:31.473Z,40.80
2022-08-25T12:43:42.568Z,40.60
2022-08-25T12:46:48.316Z,40.50
2022-08-25T12:49:54.675Z,40.60
2022-08-25T12:53:10.079Z,40.50
2022-08-25T12:56:24.836Z,40.40
2022-08-25T12:59:43.711Z,40.00
2022-08-25T13:03:15.997Z,40.00
2022-08-25T13:06:41.810Z,40.00
2022-08-25T13:10:10.570Z,40.00
2022-08-25T13:13:23.774Z,40.10
2022-08-25T13:16:33.882Z,40.30
2022-08-25T13:19:40.258Z,40.10
2022-08-25T13:22:50.307Z,40.10
2022-08-25T13:26:00.853Z,40.00
2022-08-25T13:29:17.885Z,40.00
2022-08-25T13:32:35.461Z,39.60
2022-08-25T13:35:40.527Z,39.90
2022-08-25T13:38:46.554Z,40.00
2022-08-25T13:41:55.480Z,39.90
2022-08-25T13:45:00.797Z,39.80
2022-08-25T13:48:21.183Z,39.80
2022-08-25T13:51:31.393Z,39.50
2022-08-25T13:54:41.202Z,39.60
2022-08-25T13:57:47.700Z,39.50
2022-08-25T14:01:22.380Z,39.50
2022-08-25T14:04:51.441Z,39.20
2022-08-25T14:08:15.635Z,39.20
2022-08-25T14:11:32.519Z,39.30
2022-08-25T14:14:37.860Z,39.10
2022-08-25T14:17:48.188Z,39.30
2022-08-25T14:20:58.262Z,39.20
2022-08-25T14:24:03.325Z,39.00
2022-08-25T14:27:08.739Z,39.00
2022-08-25T14:30:17.223Z,38.90
2022-08-25T14:33:40.195Z,38.90
2022-08-25T14:36:48.703Z,38.80
2022-08-25T14:39:54.757Z,38.60
2022-08-25T14:43:00.265Z,38.80
2022-08-25T14:46:15.731Z,38.80
2022-08-25T14:49:27.014Z,38.60
2022-08-25T14:52:34.539Z,38.70
2022-08-25T14:55:39.709Z,38.70
2022-08-25T14:58:51.108Z,38.60
2022-08-25T15:01:59.283Z,38.60
2022-08-25T15:05:08.710Z,38.80
2022-08-25T15:08:32.900Z,38.80
2022-08-25T15:11:38.800Z,38.80
2022-08-25T15:14:46.843Z,38.90
2022-08-25T15:17:51.779Z,38.90
2022-08-25T15:20:57.237Z,38.80
2022-08-25T15:24:04.948Z,38.90
2022-08-25T15:27:11.114Z,39.40
2022-08-25T15:30:17.298Z,38.90
2022-08-25T15:33:23.442Z,38.90
2022-08-25T15:36:29.545Z,39.00
2022-08-25T15:39:37.212Z,38.90
2022-08-25T15:42:42.894Z,39.00
2022-08-25T15:45:52.347Z,39.10
2022-08-25T15:48:58.201Z,39.20
2022-08-25T15:52:03.650Z,39.20
2022-08-25T15:55:13.326Z,39.20
2022-08-25T15:58:18.516Z,39.30
2022-08-25T16:01:26.711Z,39.30
2022-08-25T16:04:32.313Z,39.20
2022-08-25T16:07:37.584Z,39.30
2022-08-25T16:10:45.875Z,39.30
2022-08-25T16:13:52.331Z,39.20
2022-08-25T16:16:58.355Z,39.30
2022-08-25T16:20:04.949Z,39.50
2022-08-25T16:23:11.292Z,39.50
2022-08-25T16:26:19.311Z,39.60
2022-08-25T16:29:24.362Z,39.70
2022-08-25T16:32:29.405Z,39.80
2022-08-25T16:35:34.356Z,39.90
2022-08-25T16:38:42.443Z,39.90
2022-08-25T16:41:56.542Z,40.00
2022-08-25T16:45:01.783Z,40.10
2022-08-25T16:48:10.351Z,40.10
2022-08-25T16:51:19.415Z,40.20
2022-08-25T16:54:41.538Z,40.30
2022-08-25T16:57:53.565Z,40.30
2022-08-25T17:00:58.607Z,40.40
2022-08-25T17:04:04.985Z,40.60
2022-08-25T17:07:09.913Z,40.40
2022-08-25T17:10:14.928Z,40.50
2022-08-25T17:13:23.095Z,40.70
2022-08-25T17:16:31.582Z,40.70
2022-08-25T17:19:45.390Z,40.80
2022-08-25T17:22:50.922Z,40.80
2022-08-25T17:25:55.918Z,40.90
2022-08-25T17:29:04.874Z,40.90
2022-08-25T17:32:11.754Z,41.00
2022-08-25T17:35:19.486Z,41.00
2022-08-25T17:38:28.501Z,41.10
2022-08-25T17:41:33.650Z,41.20
2022-08-25T17:44:45.217Z,41.70
2022-08-25T17:47:50.714Z,42.30
2022-08-25T17:50:56.166Z,42.30
2022-08-25T17:54:01.270Z,42.60
2022-08-25T17:57:07.048Z,42.80
2022-08-25T18:00:17.164Z,42.80
2022-08-25T18:03:22.288Z,42.80
2022-08-25T18:06:29.597Z,43.00
2022-08-25T18:09:35.661Z,43.30
2022-08-25T18:12:41.413Z,43.60
2022-08-25T18:15:50.766Z,43.70
2022-08-25T18:18:57.494Z,44.00
2022-08-25T18:22:06.153Z,44.00
2022-08-25T18:25:14.878Z,44.10
2022-08-25T18:28:22.130Z,44.20
2022-08-25T18:31:30.122Z,44.40
2022-08-25T18:34:36.438Z,44.50
2022-08-25T18:37:53.925Z,44.60
2022-08-25T18:41:00.371Z,44.60
2022-08-25T18:44:06.567Z,44.60
2022-08-25T18:47:14.287Z,44.70
2022-08-25T18:50:19.867Z,44.80
2022-08-25T18:53:30.600Z,44.90
2022-08-25T18:56:42.625Z,44.90
2022-08-25T18:59:47.603Z,45.10
2022-08-25T19:02:57.947Z,45.10
2022-08-25T19:06:03.005Z,45.40
2022-08-25T19:09:07.957Z,45.40
2022-08-25T19:12:22.726Z,45.40
2022-08-25T19:15:28.663Z,45.40
2022-08-25T19:18:36.206Z,45.50
2022-08-25T19:21:41.629Z,45.70
2022-08-25T19:24:48.903Z,45.70
2022-08-25T19:27:55.062Z,45.80
2022-08-25T19:31:01.681Z,45.90
2022-08-25T19:34:12.644Z,46.00
2022-08-25T19:37:19.542Z,46.20
2022-08-25T19:40:28.187Z,46.20
2022-08-25T19:43:33.955Z,46.30
2022-08-25T19:46:40.833Z,46.40
2022-08-25T19:49:50.706Z,46.50
2022-08-25T19:52:55.792Z,46.70
2022-08-25T19:56:01.801Z,46.80
2022-08-25T19:59:07.112Z,47.00
2022-08-25T20:02:15.761Z,47.10
2022-08-25T20:05:24.207Z,47.20
2022-08-25T20:08:30.149Z,47.40
2022-08-25T20:11:35.474Z,47.40
2022-08-25T20:14:41.152Z,47.60
2022-08-25T20:17:46.752Z,47.80
2022-08-25T20:20:54.896Z,47.90
2022-08-25T20:24:14.993Z,48.10
2022-08-25T20:27:22.202Z,48.20
2022-08-25T20:30:29.254Z,48.30
2022-08-25T20:33:34.231Z,48.40
2022-08-25T20:36:50.122Z,49.10
2022-08-25T20:39:55.614Z,48.70
2022-08-25T20:43:03.315Z,48.70
2022-08-25T20:46:09.765Z,49.60
2022-08-25T20:49:15.317Z,49.10
2022-08-25T20:52:23.553Z,49.20
2022-08-25T20:55:29.921Z,49.30
2022-08-25T20:58:34.892Z,49.30
2022-08-25T21:01:42.385Z,49.50
2022-08-25T21:04:50.352Z,49.60
2022-08-25T21:07:58.098Z,49.80
2022-08-25T21:11:03.241Z,49.90
2022-08-25T21:14:10.540Z,50.00
2022-08-25T21:17:19.173Z,50.10
2022-08-25T21:20:26.415Z,50.20
2022-08-25T21:23:34.026Z,50.30
2022-08-25T21:26:48.841Z,50.50
2022-08-25T21:29:55.154Z,51.20
2022-08-25T21:33:00.329Z,50.60
2022-08-25T21:36:06.983Z,50.70
2022-08-25T21:39:16.763Z,50.90
2022-08-25T21:42:22.668Z,51.00
2022-08-25T21:45:27.657Z,51.10
2022-08-25T21:48:41.200Z,51.20
2022-08-25T21:51:50.969Z,51.30
2022-08-25T21:55:04.824Z,51.40
2022-08-25T21:58:10.650Z,51.50
2022-08-25T22:01:18.550Z,51.60
2022-08-25T22:04:24.182Z,51.80
2022-08-25T22:07:29.241Z,51.90
2022-08-25T22:10:47.735Z,52.00
2022-08-25T22:13:54.563Z,52.30
2022-08-25T22:17:01.710Z,52.20
2022-08-25T22:20:08.455Z,52.20
2022-08-25T22:23:20.474Z,52.30
2022-08-25T22:26:29.784Z,52.50
2022-08-25T22:29:34.695Z,52.60
2022-08-25T22:32:40.876Z,52.60
2022-08-25T22:35:45.843Z,52.80
2022-08-25T22:38:52.138Z,52.80
2022-08-25T22:42:00.359Z,53.00
2022-08-25T22:45:05.320Z,53.10
2022-08-25T22:48:10.348Z,53.20
2022-08-25T22:51:18.397Z,53.30
2022-08-25T22:54:25.301Z,53.50
2022-08-25T22:57:33.417Z,53.60
2022-08-25T23:00:41.604Z,53.80
2022-08-25T23:03:48.150Z,53.90
2022-08-25T23:06:53.224Z,53.90
2022-08-25T23:10:02.937Z,54.00
2022-08-25T23:13:10.797Z,54.10
2022-08-25T23:16:25.326Z,54.30
2022-08-25T23:19:31.340Z,54.30
2022-08-25T23:22:33.751Z,54.40
2022-08-25T23:25:42.819Z,54.50
2022-08-25T23:28:51.149Z,54.70
2022-08-25T23:31:56.597Z,54.80
2022-08-25T23:35:02.183Z,54.90
2022-08-25T23:38:07.450Z,55.20
2022-08-25T23:41:15.304Z,55.20
2022-08-25T23:44:25.673Z,55.40
2022-08-25T23:47:30.725Z,55.60
2022-08-25T23:50:42.047Z,55.70
2022-08-25T23:53:47.024Z,56.10
2022-08-25T23:56:52.744Z,56.00
